createdAt,value
2019-04-29T00:01:46.903Z,46.40
2019-04-29T00:04:13.807Z,46.40
2019-04-29T00:06:41.772Z,47.10
2019-04-29T00:09:10.732Z,46.90
2019-04-29T00:11:37.761Z,46.60
2019-04-29T00:14:04.331Z,47.60
2019-04-29T00:16:31.195Z,47.30
2019-04-29T00:18:57.915Z,47.50
2019-04-29T00:21:25.437Z,47.20
2019-04-29T00:24:03.677Z,46.90
2019-04-29T00:26:23.948Z,47.20
2019-04-29T00:28:50.598Z,47.20
2019-04-29T00:31:19.470Z,47.50
2019-04-29T00:33:46.964Z,47.30
2019-04-29T00:36:15.330Z,47.00
2019-04-29T00:38:42.190Z,46.40
2019-04-29T00:41:09.001Z,47.40
2019-04-29T00:43:36.198Z,47.30
2019-04-29T00:46:03.279Z,46.70
2019-04-29T00:48:30.216Z,47.00
2019-04-29T00:50:56.842Z,47.70
2019-04-29T00:53:23.722Z,47.50
2019-04-29T00:55:50.762Z,47.30
2019-04-29T00:58:17.420Z,47.00
2019-04-29T01:00:44.048Z,47.20
2019-04-29T01:03:10.813Z,47.00
2019-04-29T01:05:37.510Z,47.30
2019-04-29T01:08:04.259Z,46.70
2019-04-29T01:10:31.088Z,47.30
2019-04-29T01:13:02.327Z,47.70
2019-04-29T01:15:29.248Z,46.60
2019-04-29T01:17:55.832Z,47.10
2019-04-29T01:20:22.410Z,47.40
2019-04-29T01:22:49.367Z,47.60
2019-04-29T01:25:16.001Z,47.00
2019-04-29T01:27:42.987Z,47.10
2019-04-29T01:30:09.943Z,47.30
2019-04-29T01:32:36.805Z,48.20
2019-04-29T01:35:04.828Z,48.30
2019-04-29T01:37:31.528Z,47.50
2019-04-29T01:39:58.246Z,47.70
2019-04-29T01:42:24.832Z,48.40
2019-04-29T01:44:51.834Z,48.10
2019-04-29T01:47:18.429Z,48.30
2019-04-29T01:49:45.011Z,48.30
2019-04-29T01:52:11.666Z,48.70
2019-04-29T01:54:38.291Z,49.00
2019-04-29T01:57:04.909Z,48.80
2019-04-29T01:59:31.637Z,48.20
2019-04-29T02:01:58.244Z,48.80
2019-04-29T02:04:24.834Z,48.60
2019-04-29T02:06:51.448Z,49.10
2019-04-29T02:09:18.329Z,49.30
2019-04-29T02:11:45.185Z,49.20
2019-04-29T02:14:11.822Z,48.20
2019-04-29T02:16:38.409Z,49.30
2019-04-29T02:19:05.354Z,50.00
2019-04-29T02:21:32.791Z,49.60
2019-04-29T02:23:59.544Z,49.40
2019-04-29T02:26:26.459Z,49.50
2019-04-29T02:28:53.577Z,48.60
2019-04-29T02:31:20.415Z,49.40
2019-04-29T02:33:47.054Z,49.00
2019-04-29T02:36:13.918Z,49.60
2019-04-29T02:38:40.505Z,50.50
2019-04-29T02:41:07.485Z,50.00
2019-04-29T02:43:37.204Z,49.60
2019-04-29T02:46:07.949Z,50.00
2019-04-29T02:48:37.999Z,49.40
2019-04-29T02:51:05.006Z,50.40
2019-04-29T02:53:35.227Z,50.40
2019-04-29T02:56:04.660Z,50.90
2019-04-29T02:58:33.751Z,51.30
2019-04-29T03:01:03.511Z,50.50
2019-04-29T03:03:35.886Z,51.80
2019-04-29T03:06:02.406Z,52.80
2019-04-29T03:08:29.005Z,52.20
2019-04-29T03:10:55.586Z,52.70
2019-04-29T03:13:22.472Z,53.00
2019-04-29T03:15:49.062Z,51.60
2019-04-29T03:18:15.674Z,52.60
2019-04-29T03:20:42.327Z,52.30
2019-04-29T03:23:11.523Z,52.00
2019-04-29T03:25:41.477Z,53.30
2019-04-29T03:28:10.540Z,52.80
2019-04-29T03:30:39.482Z,52.60
2019-04-29T03:33:08.199Z,53.00
2019-04-29T03:35:35.948Z,52.70
2019-04-29T03:38:06.686Z,54.10
2019-04-29T03:40:33.239Z,53.40
2019-04-29T03:43:03.799Z,53.80
2019-04-29T03:45:31.411Z,53.80
2019-04-29T03:47:59.144Z,53.20
2019-04-29T03:50:28.600Z,53.30
2019-04-29T03:52:59.111Z,54.10
2019-04-29T03:55:38.981Z,53.90
2019-04-29T03:57:59.767Z,54.00
2019-04-29T04:00:31.988Z,54.60
2019-04-29T04:02:58.914Z,54.30
2019-04-29T04:05:28.070Z,55.00
2019-04-29T04:07:57.667Z,55.60
2019-04-29T04:10:26.321Z,54.80
2019-04-29T04:12:52.977Z,55.60
2019-04-29T04:15:21.982Z,56.00
2019-04-29T04:17:50.296Z,55.60
2019-04-29T04:20:17.180Z,55.70
2019-04-29T04:22:43.791Z,55.60
2019-04-29T04:25:10.520Z,55.40
2019-04-29T04:27:41.422Z,56.20
2019-04-29T04:30:10.648Z,56.30
2019-04-29T04:32:37.243Z,56.60
2019-04-29T04:35:04.138Z,56.50
2019-04-29T04:37:34.391Z,56.40
2019-04-29T04:40:01.330Z,56.90
2019-04-29T04:42:30.015Z,57.10
2019-04-29T04:44:57.374Z,56.30
2019-04-29T04:47:24.308Z,56.00
2019-04-29T04:49:50.917Z,56.50
2019-04-29T04:52:17.497Z,55.80
2019-04-29T04:54:44.349Z,56.90
2019-04-29T04:57:11.034Z,56.60
2019-04-29T04:59:37.632Z,55.70
2019-04-29T05:02:04.263Z,55.40
2019-04-29T05:04:30.902Z,56.10
2019-04-29T05:06:58.161Z,56.00
2019-04-29T05:09:24.786Z,55.30
2019-04-29T05:11:51.414Z,53.50
2019-04-29T05:14:18.302Z,53.70
2019-04-29T05:16:45.114Z,54.90
2019-04-29T05:19:11.957Z,54.10
2019-04-29T05:21:38.571Z,53.50
2019-04-29T05:24:05.532Z,55.20
2019-04-29T05:26:32.224Z,54.70
2019-04-29T05:28:59.532Z,54.80
2019-04-29T05:31:26.074Z,54.00
2019-04-29T05:33:52.898Z,54.90
2019-04-29T05:36:19.490Z,54.60
2019-04-29T05:38:46.088Z,56.70
2019-04-29T05:41:12.700Z,53.50
2019-04-29T05:43:39.296Z,53.30
2019-04-29T05:46:07.545Z,52.30
2019-04-29T05:48:34.625Z,53.10
2019-04-29T05:51:01.458Z,53.90
2019-04-29T05:53:28.057Z,53.70
2019-04-29T05:55:54.827Z,54.90
2019-04-29T05:58:21.696Z,51.00
2019-04-29T06:00:48.277Z,51.00
2019-04-29T06:03:15.378Z,50.60
2019-04-29T06:05:41.957Z,51.20
2019-04-29T06:08:08.876Z,52.90
2019-04-29T06:10:36.395Z,50.80
2019-04-29T06:13:02.977Z,51.40
2019-04-29T06:15:29.572Z,51.50
2019-04-29T06:17:56.184Z,51.70
2019-04-29T06:20:23.073Z,50.70
2019-04-29T06:22:49.667Z,50.40
2019-04-29T06:25:16.529Z,51.60
2019-04-29T06:27:43.120Z,51.10
2019-04-29T06:30:09.783Z,51.00
2019-04-29T06:32:36.452Z,50.40
2019-04-29T06:35:03.362Z,50.40
2019-04-29T06:37:30.130Z,51.40
2019-04-29T06:39:59.938Z,51.30
2019-04-29T06:42:33.278Z,51.10
2019-04-29T06:45:01.534Z,51.60
2019-04-29T06:47:31.231Z,51.70
2019-04-29T06:50:00.094Z,50.20
2019-04-29T06:52:30.087Z,50.20
2019-04-29T06:54:58.589Z,49.00
2019-04-29T06:57:27.551Z,49.50
2019-04-29T06:59:54.850Z,49.70
2019-04-29T07:02:25.339Z,49.90
2019-04-29T07:04:54.869Z,50.50
2019-04-29T07:07:21.945Z,49.50
2019-04-29T07:09:56.698Z,49.30
2019-04-29T07:12:26.692Z,50.00
2019-04-29T07:14:59.797Z,51.90
2019-04-29T07:17:28.526Z,50.00
2019-04-29T07:19:57.633Z,49.20
2019-04-29T07:22:31.493Z,49.50
2019-04-29T07:25:00.910Z,49.90
2019-04-29T07:27:28.384Z,48.70
2019-04-29T07:29:55.240Z,49.50
2019-04-29T07:32:21.877Z,48.80
2019-04-29T07:34:51.837Z,48.90
2019-04-29T07:37:20.715Z,49.00
2019-04-29T07:39:51.025Z,49.10
2019-04-29T07:42:20.149Z,49.30
2019-04-29T07:44:48.948Z,50.60
2019-04-29T07:47:25.000Z,49.30
2019-04-29T07:49:51.396Z,49.60
2019-04-29T07:52:21.930Z,49.10
2019-04-29T07:54:55.185Z,50.40
2019-04-29T07:57:28.461Z,49.90
2019-04-29T08:02:45.390Z,50.60
2019-04-29T08:05:15.544Z,51.20
2019-04-29T08:07:45.779Z,51.90
2019-04-29T08:10:28.618Z,51.00
2019-04-29T08:13:01.861Z,50.80
2019-04-29T08:15:36.641Z,52.00
2019-04-29T08:29:01.610Z,52.00
2019-04-29T08:31:32.700Z,52.90
2019-04-29T08:33:59.385Z,52.10
2019-04-29T08:36:28.405Z,52.10
2019-04-29T08:41:29.844Z,52.40
2019-04-29T08:44:14.728Z,51.80
2019-04-29T08:46:27.757Z,51.50
2019-04-29T08:48:55.241Z,52.60
2019-04-29T08:51:22.611Z,52.10
2019-04-29T08:53:55.654Z,51.70
2019-04-29T08:56:29.005Z,52.40
2019-04-29T08:58:55.499Z,52.60
2019-04-29T09:01:33.869Z,53.70
2019-04-29T09:04:05.860Z,54.10
2019-04-29T09:06:38.370Z,57.40
2019-04-29T09:09:10.585Z,57.10
2019-04-29T09:11:37.370Z,56.10
2019-04-29T09:14:05.917Z,56.10
2019-04-29T09:16:35.036Z,55.30
2019-04-29T09:19:05.379Z,52.60
2019-04-29T09:21:36.570Z,52.20
2019-04-29T09:24:06.092Z,52.90
2019-04-29T09:26:37.423Z,53.20
2019-04-29T09:29:10.934Z,54.10
2019-04-29T09:31:39.064Z,53.60
2019-04-29T09:34:26.518Z,53.10
2019-04-29T09:36:56.725Z,54.60
2019-04-29T09:39:25.783Z,52.70
2019-04-29T09:41:55.865Z,51.50
2019-04-29T09:44:24.657Z,52.60
2019-04-29T09:46:54.089Z,50.60
2019-04-29T09:49:22.132Z,50.80
2019-04-29T09:51:51.688Z,52.50
2019-04-29T09:54:19.704Z,50.20
2019-04-29T09:56:48.485Z,51.80
2019-04-29T09:59:21.641Z,51.30
2019-04-29T10:01:54.604Z,50.00
2019-04-29T10:04:28.447Z,49.70
2019-04-29T10:06:57.743Z,51.60
2019-04-29T10:09:26.085Z,49.90
2019-04-29T10:11:54.121Z,48.70
2019-04-29T10:14:24.315Z,50.50
2019-04-29T10:16:56.290Z,49.90
2019-04-29T10:19:23.269Z,49.90
2019-04-29T10:21:54.516Z,47.60
2019-04-29T10:27:11.581Z,49.40
2019-04-29T10:29:40.896Z,48.80
2019-04-29T10:32:10.010Z,48.50
2019-04-29T10:34:43.043Z,49.10
2019-04-29T10:37:07.913Z,48.80
2019-04-29T10:39:36.816Z,48.70
2019-04-29T10:42:08.359Z,48.60
2019-04-29T10:44:37.514Z,48.70
2019-04-29T10:47:22.158Z,48.30
2019-04-29T10:49:51.574Z,49.70
2019-04-29T10:52:21.203Z,50.40
2019-04-29T10:55:06.530Z,50.00
2019-04-29T10:57:49.783Z,48.90
2019-04-29T11:00:17.008Z,49.10
2019-04-29T11:02:49.414Z,49.30
2019-04-29T11:05:18.977Z,49.90
2019-04-29T11:07:46.693Z,49.10
2019-04-29T11:10:24.880Z,48.40
2019-04-29T11:12:54.601Z,48.40
2019-04-29T11:15:17.356Z,48.50
2019-04-29T11:17:46.428Z,49.40
2019-04-29T11:20:16.035Z,48.40
2019-04-29T11:22:47.662Z,47.80
2019-04-29T11:25:18.446Z,48.30
2019-04-29T11:27:45.422Z,48.60
2019-04-29T11:30:14.545Z,49.10
2019-04-29T11:32:47.310Z,49.80
2019-04-29T11:35:17.946Z,48.50
2019-04-29T11:37:49.992Z,48.60
2019-04-29T11:40:20.612Z,48.60
2019-04-29T11:42:52.689Z,49.30
2019-04-29T11:45:23.150Z,48.60
2019-04-29T11:47:52.442Z,49.90
2019-04-29T11:50:21.590Z,49.90
2019-04-29T11:52:48.759Z,50.00
2019-04-29T11:55:21.789Z,50.20
2019-04-29T11:57:51.374Z,48.10
2019-04-29T12:00:19.166Z,48.50
2019-04-29T12:02:47.124Z,49.10
2019-04-29T12:05:17.810Z,48.20
2019-04-29T12:07:44.685Z,48.60
2019-04-29T12:10:12.982Z,49.50
2019-04-29T12:12:43.663Z,49.10
2019-04-29T12:15:15.411Z,48.20
2019-04-29T12:17:42.823Z,47.50
2019-04-29T12:20:10.029Z,48.30
2019-04-29T12:25:27.539Z,49.60
2019-04-29T12:28:01.513Z,48.60
2019-04-29T12:30:23.456Z,48.60
2019-04-29T12:32:56.771Z,48.10
2019-04-29T12:35:23.421Z,48.20
2019-04-29T12:40:39.495Z,48.10
2019-04-29T12:43:06.510Z,49.80
2019-04-29T12:45:34.288Z,48.90
2019-04-29T12:48:02.642Z,50.10
2019-04-29T12:50:29.649Z,47.90
2019-04-29T12:52:57.683Z,49.90
2019-04-29T12:55:43.487Z,48.20
2019-04-29T12:57:53.604Z,48.70
2019-04-29T13:00:20.579Z,48.80
2019-04-29T13:02:47.368Z,49.40
2019-04-29T13:05:16.606Z,48.90
2019-04-29T13:07:43.793Z,49.50
2019-04-29T13:10:13.596Z,49.00
2019-04-29T13:12:44.040Z,48.50
2019-04-29T13:15:12.681Z,49.00
2019-04-29T13:17:37.374Z,48.30
2019-04-29T13:20:07.210Z,49.70
2019-04-29T13:22:33.068Z,48.30
2019-04-29T13:24:59.994Z,48.50
2019-04-29T13:27:28.527Z,48.50
2019-04-29T13:29:55.606Z,49.20
2019-04-29T13:32:25.354Z,47.90
2019-04-29T13:34:52.552Z,48.60
2019-04-29T13:37:20.021Z,49.20
2019-04-29T13:39:48.423Z,47.00
2019-04-29T13:42:15.958Z,47.80
2019-04-29T13:45:04.713Z,49.00
2019-04-29T13:47:12.880Z,48.80
2019-04-29T13:49:40.329Z,48.90
2019-04-29T13:52:42.269Z,49.40
2019-04-29T13:54:46.759Z,49.50
2019-04-29T13:57:15.959Z,49.50
2019-04-29T13:59:49.150Z,49.00
2019-04-29T14:07:57.902Z,48.90
2019-04-29T14:10:24.710Z,48.50
2019-04-29T14:13:05.161Z,48.70
2019-04-29T14:15:20.666Z,48.50
2019-04-29T14:17:47.574Z,48.30
2019-04-29T14:20:15.543Z,48.20
2019-04-29T14:22:43.257Z,49.70
2019-04-29T14:33:38.858Z,48.60
2019-04-29T14:36:05.456Z,48.20
2019-04-29T14:38:35.946Z,48.10
2019-04-29T14:41:01.450Z,47.80
2019-04-29T14:43:31.853Z,47.50
2019-04-29T14:45:56.458Z,48.80
2019-04-29T14:48:23.323Z,47.60
2019-04-29T14:50:54.055Z,48.50
2019-04-29T14:53:19.555Z,48.10
2019-04-29T14:55:47.154Z,48.50
2019-04-29T14:58:14.096Z,48.30
2019-04-29T15:00:41.843Z,48.80
2019-04-29T15:03:08.866Z,47.70
2019-04-29T15:05:36.353Z,48.30
2019-04-29T15:08:03.251Z,48.60
2019-04-29T15:10:31.135Z,48.70
2019-04-29T15:13:18.289Z,47.90
2019-04-29T15:15:34.205Z,48.90
2019-04-29T15:17:59.698Z,49.70
2019-04-29T15:20:30.271Z,47.90
2019-04-29T15:22:57.740Z,48.50
2019-04-29T15:25:25.810Z,48.20
2019-04-29T15:27:52.583Z,48.50
2019-04-29T15:30:23.285Z,47.90
2019-04-29T15:32:53.199Z,48.30
2019-04-29T15:35:19.779Z,48.50
2019-04-29T15:37:47.651Z,48.90
2019-04-29T15:40:14.241Z,47.60
2019-04-29T15:42:43.227Z,49.10
2019-04-29T15:45:09.470Z,48.40
2019-04-29T15:47:36.116Z,47.70
2019-04-29T15:50:18.134Z,48.10
2019-04-29T15:52:33.226Z,46.70
2019-04-29T15:54:59.850Z,46.60
2019-04-29T15:57:26.817Z,48.10
2019-04-29T15:59:58.921Z,48.50
2019-04-29T16:02:22.605Z,47.50
2019-04-29T16:04:49.524Z,47.70
2019-04-29T16:07:17.655Z,47.90
2019-04-29T16:09:51.904Z,47.70
2019-04-29T16:12:15.386Z,47.20
2019-04-29T16:14:41.718Z,47.70
2019-04-29T16:17:09.773Z,47.60
2019-04-29T16:19:36.417Z,49.40
2019-04-29T16:22:03.005Z,48.30
2019-04-29T16:24:37.637Z,48.50
2019-04-29T16:27:01.121Z,48.40
2019-04-29T16:29:26.508Z,47.90
2019-04-29T16:31:54.948Z,48.10
2019-04-29T16:34:21.579Z,48.90
2019-04-29T16:36:50.042Z,49.00
2019-04-29T16:39:17.082Z,48.50
2019-04-29T16:41:51.132Z,48.90
2019-04-29T16:44:34.255Z,49.00
2019-04-29T16:46:43.187Z,48.30
2019-04-29T16:49:11.103Z,48.10
2019-04-29T16:51:37.791Z,48.00
2019-04-29T16:54:04.412Z,48.60
2019-04-29T16:56:31.565Z,48.40
2019-04-29T16:58:58.186Z,48.10
2019-04-29T17:01:27.022Z,49.40
2019-04-29T17:03:54.795Z,48.80
2019-04-29T17:06:22.387Z,48.30
2019-04-29T17:08:50.582Z,49.20
2019-04-29T17:11:19.391Z,49.40
2019-04-29T17:13:48.936Z,49.70
2019-04-29T17:16:15.909Z,49.60
2019-04-29T17:18:42.866Z,49.00
2019-04-29T17:21:09.905Z,48.80
2019-04-29T17:23:37.141Z,48.90
2019-04-29T17:26:03.743Z,49.60
2019-04-29T17:28:31.339Z,49.50
2019-04-29T17:30:58.689Z,48.60
2019-04-29T17:33:28.411Z,49.80
2019-04-29T17:35:55.787Z,49.40
2019-04-29T17:38:23.365Z,50.20
2019-04-29T17:40:51.026Z,48.60
2019-04-29T17:43:18.306Z,48.50
2019-04-29T17:59:49.073Z,49.80
2019-04-29T18:02:21.686Z,50.00
2019-04-29T18:04:45.645Z,49.80
2019-04-29T18:07:12.591Z,50.00
2019-04-29T18:09:39.782Z,50.60
2019-04-29T18:12:06.402Z,48.60
2019-04-29T18:14:40.435Z,49.10
2019-04-29T18:17:02.519Z,49.40
2019-04-29T18:19:30.847Z,50.70
2019-04-29T18:21:57.449Z,50.90
2019-04-29T18:24:25.402Z,49.90
2019-04-29T18:26:52.900Z,49.50
2019-04-29T18:29:19.598Z,50.60
2019-04-29T18:31:46.658Z,50.50
2019-04-29T18:34:15.189Z,49.80
2019-04-29T18:36:41.973Z,48.20
2019-04-29T18:39:09.166Z,48.40
2019-04-29T18:41:36.033Z,49.20
2019-04-29T18:44:04.932Z,48.30
2019-04-29T18:46:31.271Z,50.10
2019-04-29T18:49:03.013Z,49.90
2019-04-29T18:51:28.884Z,49.60
2019-04-29T18:53:58.579Z,49.40
2019-04-29T18:59:13.207Z,49.20
2019-04-29T19:01:41.277Z,50.50
2019-04-29T19:04:13.767Z,49.10
2019-04-29T19:06:40.606Z,49.70
2019-04-29T19:09:17.953Z,49.80
2019-04-29T19:11:38.459Z,48.40
2019-04-29T19:14:08.713Z,49.80
2019-04-29T19:16:36.286Z,50.00
2019-04-29T19:19:05.135Z,52.40
2019-04-29T19:21:34.307Z,52.10
2019-04-29T19:24:01.329Z,51.00
2019-04-29T19:26:28.199Z,52.30
2019-04-29T19:28:56.814Z,51.80
2019-04-29T19:31:25.170Z,50.70
2019-04-29T19:33:52.226Z,50.10
2019-04-29T19:36:21.798Z,50.60
2019-04-29T19:38:47.845Z,52.00
2019-04-29T19:41:16.285Z,51.20
2019-04-29T19:43:43.025Z,50.70
2019-04-29T19:46:36.848Z,53.20
2019-04-29T19:49:07.432Z,51.60
2019-04-29T19:51:29.814Z,50.90
2019-04-29T19:54:10.471Z,51.50
2019-04-29T19:56:49.408Z,52.20
2019-04-29T19:59:18.674Z,51.10
2019-04-29T20:02:01.695Z,53.20
2019-04-29T20:04:23.186Z,54.40
2019-04-29T20:06:56.099Z,54.90
2019-04-29T20:09:24.336Z,54.50
2019-04-29T20:11:55.852Z,52.60
2019-04-29T20:14:27.400Z,53.70
2019-04-29T20:16:57.337Z,53.30
2019-04-29T20:19:22.189Z,54.20
2019-04-29T20:21:51.145Z,53.60
2019-04-29T20:24:22.828Z,54.60
2019-04-29T20:26:47.490Z,54.70
2019-04-29T20:29:15.920Z,56.00
2019-04-29T20:31:49.134Z,55.10
2019-04-29T20:34:11.453Z,56.30
2019-04-29T20:36:42.668Z,56.80
2019-04-29T20:39:15.095Z,54.50
2019-04-29T20:41:42.021Z,54.10
2019-04-29T20:44:09.639Z,53.40
2019-04-29T20:46:45.435Z,51.70
2019-04-29T20:49:05.816Z,51.80
2019-04-29T20:51:48.998Z,52.30
2019-04-29T20:54:01.401Z,53.20
2019-04-29T20:56:29.873Z,52.50
2019-04-29T20:58:56.691Z,51.90
2019-04-29T21:01:25.346Z,51.20
2019-04-29T21:03:56.508Z,51.90
2019-04-29T21:06:22.789Z,52.60
2019-04-29T21:08:50.943Z,51.80
2019-04-29T21:11:21.011Z,51.70
2019-04-29T21:13:48.846Z,52.30
2019-04-29T21:16:15.188Z,53.70
2019-04-29T21:18:45.527Z,51.20
2019-04-29T21:21:10.650Z,51.30
2019-04-29T21:23:37.446Z,51.00
2019-04-29T21:26:05.378Z,52.20
2019-04-29T21:28:38.224Z,50.90
2019-04-29T21:31:01.157Z,51.10
2019-04-29T21:33:27.817Z,51.10
2019-04-29T21:35:57.800Z,50.50
2019-04-29T21:38:23.485Z,50.80
2019-04-29T21:40:50.421Z,50.80
2019-04-29T21:43:17.769Z,51.20
2019-04-29T21:45:48.259Z,50.50
2019-04-29T21:48:13.097Z,50.40
2019-04-29T21:50:40.093Z,51.00
2019-04-29T21:53:07.036Z,51.60
2019-04-29T21:55:35.731Z,51.10
2019-04-29T21:58:02.541Z,51.50
2019-04-29T22:00:29.417Z,51.20
2019-04-29T22:03:00.554Z,50.70
2019-04-29T22:05:27.307Z,50.30
2019-04-29T22:07:54.239Z,50.30
2019-04-29T22:10:25.148Z,49.90
2019-04-29T22:12:50.975Z,50.30
2019-04-29T22:15:32.679Z,50.50
2019-04-29T22:18:01.309Z,50.00
2019-04-29T22:43:25.339Z,51.40
2019-04-29T22:45:52.548Z,50.70
2019-04-29T22:48:20.168Z,50.80
2019-04-29T22:50:47.424Z,50.40
2019-04-29T22:53:14.796Z,49.90
2019-04-29T22:55:41.529Z,50.40
2019-04-29T22:58:09.755Z,50.40
2019-04-29T23:00:37.063Z,50.80
2019-04-29T23:03:03.935Z,49.90
2019-04-29T23:05:31.033Z,50.20
2019-04-29T23:08:00.318Z,50.40
2019-04-29T23:10:27.892Z,50.40
2019-04-29T23:15:41.178Z,50.50
2019-04-29T23:18:07.775Z,49.80
2019-04-29T23:20:35.278Z,50.60
2019-04-29T23:23:02.451Z,50.60
2019-04-29T23:25:29.960Z,50.70
2019-04-29T23:27:56.659Z,50.50
2019-04-29T23:30:23.293Z,50.50
2019-04-29T23:32:50.186Z,50.50
2019-04-29T23:35:16.840Z,50.70
2019-04-29T23:37:45.747Z,50.20
2019-04-29T23:40:12.447Z,49.60
2019-04-29T23:42:39.377Z,49.60
